Terminal Aerodrome Forecast
Issued by NWS

Home | Current Version | Previous Version | Text Only | Print | Product List | Glossary On
Versions: 1 2 3 4 5 6 7 8 9 10 11 12 13 14
000
FTUS44 KBMX 182300
TAFMGM
TAF
KMGM 182320Z 1900/1924 36004KT P6SM BKN100
     FM190500 33002KT P6SM SCT100 BKN250
     FM190900 01004KT P6SM BKN030
     FM191600 04005KT P6SM VCSH BKN035 OVC050
     FM192100 02007KT 4SM RA BKN035 OVC050=

USA.gov is the U.S. government's official web portal to all federal, state and local government web resources and services.